createdAt,value
2023-09-21T00:00:33.879Z,3.25
2023-09-21T00:03:02.236Z,2.50
2023-09-21T00:05:31.296Z,2.90
2023-09-21T00:07:59.035Z,2.90
2023-09-21T00:10:33.573Z,2.65
2023-09-21T00:13:02.121Z,2.53
2023-09-21T00:15:30.126Z,2.40
2023-09-21T00:17:59.337Z,2.38
2023-09-21T00:20:36.964Z,2.50
2023-09-21T00:23:07.284Z,2.55
2023-09-21T00:25:34.938Z,2.55
2023-09-21T00:28:05.550Z,2.42
2023-09-21T00:30:33.472Z,2.00
2023-09-21T00:33:03.174Z,2.50
2023-09-21T00:35:30.908Z,2.33
2023-09-21T00:37:58.226Z,2.35
2023-09-21T00:40:25.742Z,2.85
2023-09-21T00:42:53.741Z,2.30
2023-09-21T00:45:22.669Z,2.15
2023-09-21T00:47:51.606Z,2.67
2023-09-21T00:50:23.123Z,2.63
2023-09-21T00:52:53.045Z,2.58
2023-09-21T00:55:24.617Z,3.00
2023-09-21T00:57:52.809Z,2.40
2023-09-21T01:00:20.486Z,2.30
2023-09-21T01:02:51.010Z,2.83
2023-09-21T01:05:18.984Z,2.50
2023-09-21T01:07:49.297Z,2.55
2023-09-21T01:10:20.309Z,2.88
2023-09-21T01:12:50.269Z,2.47
2023-09-21T01:15:18.916Z,2.83
2023-09-21T01:17:47.179Z,2.95
2023-09-21T01:20:18.158Z,2.50
2023-09-21T01:22:50.970Z,2.38
2023-09-21T01:25:19.726Z,2.33
2023-09-21T01:27:47.106Z,2.00
2023-09-21T01:30:15.443Z,2.40
2023-09-21T01:32:43.010Z,3.17
2023-09-21T01:35:10.861Z,1.90
2023-09-21T01:37:38.238Z,1.90
2023-09-21T01:40:11.075Z,1.70
2023-09-21T01:42:39.761Z,2.10
2023-09-21T01:45:13.243Z,2.25
2023-09-21T01:47:40.724Z,2.10
2023-09-21T01:50:11.090Z,1.80
2023-09-21T01:52:38.529Z,2.20
2023-09-21T01:55:11.387Z,1.92
2023-09-21T01:57:40.510Z,1.63
2023-09-21T02:00:13.492Z,2.35
2023-09-21T02:02:41.567Z,1.90
2023-09-21T02:05:13.308Z,1.70
2023-09-21T02:07:41.767Z,2.10
2023-09-21T02:10:12.156Z,1.90
2023-09-21T02:12:41.083Z,1.42
2023-09-21T02:15:12.348Z,2.10
2023-09-21T02:17:40.712Z,2.10
2023-09-21T02:20:14.641Z,1.58
2023-09-21T02:22:43.148Z,1.60
2023-09-21T02:25:12.114Z,1.80
2023-09-21T02:27:41.567Z,1.60
2023-09-21T02:30:14.452Z,1.80
2023-09-21T02:32:42.862Z,1.70
2023-09-21T02:35:14.407Z,1.70
2023-09-21T02:37:45.408Z,2.15
2023-09-21T02:40:15.373Z,1.77
2023-09-21T02:42:44.861Z,1.95
2023-09-21T02:45:12.968Z,1.88
2023-09-21T02:47:40.902Z,1.77
2023-09-21T02:50:15.668Z,1.85
2023-09-21T02:52:47.639Z,1.83
2023-09-21T02:55:17.642Z,2.20
2023-09-21T02:57:48.174Z,2.08
2023-09-21T03:00:27.585Z,2.03
2023-09-21T03:02:56.338Z,1.80
2023-09-21T03:05:25.271Z,1.90
2023-09-21T03:07:53.077Z,1.75
2023-09-21T03:10:21.147Z,1.90
2023-09-21T03:12:50.201Z,2.05
2023-09-21T03:15:19.668Z,1.85
2023-09-21T03:17:48.630Z,2.00
2023-09-21T03:20:21.048Z,1.88
2023-09-21T03:22:48.443Z,2.20
2023-09-21T03:25:17.377Z,1.83
2023-09-21T03:27:46.864Z,1.75
2023-09-21T03:30:18.906Z,1.73
2023-09-21T03:32:46.312Z,1.80
2023-09-21T03:35:13.812Z,2.05
2023-09-21T03:37:42.401Z,1.98
2023-09-21T03:40:11.539Z,2.13
2023-09-21T03:42:39.152Z,2.42
2023-09-21T03:45:08.376Z,1.60
2023-09-21T03:47:37.101Z,1.70
2023-09-21T03:50:07.330Z,2.17
2023-09-21T03:52:34.978Z,1.73
2023-09-21T03:55:03.200Z,1.70
2023-09-21T03:57:30.858Z,2.00
2023-09-21T03:59:59.121Z,2.10
2023-09-21T04:02:27.972Z,2.10
2023-09-21T04:05:02.552Z,1.92
2023-09-21T04:07:29.896Z,1.58
2023-09-21T04:09:57.429Z,1.77
2023-09-21T04:12:24.791Z,1.80
2023-09-21T04:14:53.053Z,2.20
2023-09-21T04:17:21.024Z,2.10
2023-09-21T04:19:48.717Z,1.98
2023-09-21T04:22:17.445Z,1.90
2023-09-21T04:24:44.949Z,2.53
2023-09-21T04:27:12.617Z,1.90
2023-09-21T04:29:40.100Z,1.95
2023-09-21T04:32:09.021Z,2.22
2023-09-21T04:34:37.237Z,2.30
2023-09-21T04:37:04.661Z,2.25
2023-09-21T04:39:34.131Z,2.55
2023-09-21T04:42:02.163Z,2.10
2023-09-21T04:44:31.352Z,2.05
2023-09-21T04:46:58.767Z,2.20
2023-09-21T04:49:26.164Z,2.97
2023-09-21T04:51:53.530Z,1.88
2023-09-21T04:54:23.067Z,2.90
2023-09-21T04:56:52.884Z,1.90
2023-09-21T04:59:21.729Z,2.35
2023-09-21T05:01:49.309Z,2.38
2023-09-21T05:04:17.350Z,2.22
2023-09-21T05:06:44.772Z,2.20
2023-09-21T05:09:13.763Z,1.80
2023-09-21T05:11:42.389Z,2.33
2023-09-21T05:14:13.568Z,2.10
2023-09-21T05:16:42.261Z,2.30
2023-09-21T05:19:12.510Z,2.20
2023-09-21T05:21:39.883Z,2.20
2023-09-21T05:24:08.012Z,2.80
2023-09-21T05:26:35.487Z,2.20
2023-09-21T05:29:03.581Z,2.60
2023-09-21T05:31:33.069Z,2.25
2023-09-21T05:34:01.477Z,1.80
2023-09-21T05:36:30.881Z,1.85
2023-09-21T05:38:58.286Z,1.70
2023-09-21T05:41:25.759Z,2.00
2023-09-21T05:43:53.921Z,2.50
2023-09-21T05:46:22.682Z,1.90
2023-09-21T05:48:51.824Z,1.90
2023-09-21T05:51:19.357Z,2.00
2023-09-21T05:53:47.249Z,1.98
2023-09-21T05:56:15.002Z,2.47
2023-09-21T05:58:42.749Z,2.05
2023-09-21T06:01:10.344Z,2.25
2023-09-21T06:03:38.406Z,1.90
2023-09-21T06:06:08.876Z,2.25
2023-09-21T06:08:37.927Z,2.47
2023-09-21T06:11:05.882Z,2.33
2023-09-21T06:13:34.145Z,2.20
2023-09-21T06:16:04.006Z,2.20
2023-09-21T06:18:32.038Z,2.40
2023-09-21T06:21:03.438Z,2.17
2023-09-21T06:23:32.828Z,2.10
2023-09-21T06:26:02.319Z,1.90
2023-09-21T06:28:30.280Z,2.28
2023-09-21T06:30:58.287Z,2.00
2023-09-21T06:33:29.028Z,2.30
2023-09-21T06:35:56.885Z,1.92
2023-09-21T06:38:24.946Z,2.00
2023-09-21T06:40:54.064Z,1.85
2023-09-21T06:43:22.932Z,2.60
2023-09-21T06:45:51.050Z,2.10
2023-09-21T06:48:19.151Z,2.40
2023-09-21T06:50:46.946Z,2.60
2023-09-21T06:53:16.275Z,1.73
2023-09-21T06:55:44.070Z,2.17
2023-09-21T06:58:13.663Z,2.28
2023-09-21T07:00:41.301Z,2.00
2023-09-21T07:03:09.283Z,2.28
2023-09-21T07:05:37.222Z,2.53
2023-09-21T07:08:05.623Z,2.20
2023-09-21T07:10:33.866Z,2.00
2023-09-21T07:13:02.263Z,1.98
2023-09-21T07:15:32.124Z,2.10
2023-09-21T07:18:00.083Z,1.85
2023-09-21T07:20:28.067Z,1.58
2023-09-21T07:22:56.356Z,1.88
2023-09-21T07:25:24.945Z,2.25
2023-09-21T07:27:55.729Z,2.13
2023-09-21T07:30:23.571Z,1.90
2023-09-21T07:32:53.081Z,2.58
2023-09-21T07:35:22.707Z,2.03
2023-09-21T07:37:51.173Z,2.53
2023-09-21T07:40:19.661Z,2.60
2023-09-21T07:42:49.682Z,2.10
2023-09-21T07:45:17.793Z,1.75
2023-09-21T07:47:47.119Z,2.10
2023-09-21T07:50:19.459Z,1.90
2023-09-21T07:52:48.221Z,2.30
2023-09-21T07:55:16.397Z,2.35
2023-09-21T07:57:48.710Z,3.03
2023-09-21T08:00:17.318Z,2.50
2023-09-21T08:02:45.234Z,2.50
2023-09-21T08:05:14.572Z,2.80
2023-09-21T08:07:44.246Z,3.20
2023-09-21T08:10:12.915Z,2.88
2023-09-21T08:12:42.561Z,2.97
2023-09-21T08:15:12.147Z,2.42
2023-09-21T08:17:40.584Z,2.75
2023-09-21T08:20:11.035Z,2.33
2023-09-21T08:22:39.764Z,2.40
2023-09-21T08:25:09.921Z,2.50
2023-09-21T08:27:38.126Z,2.58
2023-09-21T08:30:06.483Z,2.63
2023-09-21T08:32:35.527Z,2.28
2023-09-21T08:35:03.739Z,2.65
2023-09-21T08:37:32.751Z,2.80
2023-09-21T08:40:00.956Z,2.13
2023-09-21T08:42:30.405Z,2.60
2023-09-21T08:44:58.666Z,2.22
2023-09-21T08:47:33.846Z,2.55
2023-09-21T08:50:04.950Z,2.17
2023-09-21T08:52:35.086Z,2.35
2023-09-21T08:55:03.097Z,2.75
2023-09-21T08:57:33.450Z,2.58
2023-09-21T09:00:06.230Z,2.63
2023-09-21T09:02:36.697Z,2.00
2023-09-21T09:05:08.016Z,2.83
2023-09-21T09:07:38.292Z,3.13
2023-09-21T09:10:07.533Z,2.00
2023-09-21T09:12:36.960Z,2.78
2023-09-21T09:15:06.529Z,2.45
2023-09-21T09:17:34.737Z,2.85
2023-09-21T09:20:04.741Z,2.90
2023-09-21T09:22:33.208Z,2.38
2023-09-21T09:25:05.577Z,2.33
2023-09-21T09:27:33.590Z,2.22
2023-09-21T09:30:04.409Z,2.72
2023-09-21T09:32:38.733Z,2.20
2023-09-21T09:35:07.908Z,2.38
2023-09-21T09:37:36.394Z,2.20
2023-09-21T09:40:10.522Z,2.30
2023-09-21T09:42:41.736Z,2.40
2023-09-21T09:45:13.605Z,2.30
2023-09-21T09:47:42.268Z,1.92
2023-09-21T09:50:12.602Z,2.22
2023-09-21T09:52:44.886Z,2.20
2023-09-21T09:55:14.669Z,2.03
2023-09-21T09:57:45.300Z,2.22
2023-09-21T10:00:23.832Z,2.28
2023-09-21T10:02:52.778Z,2.20
2023-09-21T10:05:22.138Z,2.13
2023-09-21T10:07:52.429Z,2.85
2023-09-21T10:10:21.919Z,2.33
2023-09-21T10:12:52.195Z,1.88
2023-09-21T10:15:23.540Z,1.83
2023-09-21T10:17:52.242Z,1.70
2023-09-21T10:20:26.168Z,2.30
2023-09-21T10:22:54.948Z,2.15
2023-09-21T10:25:37.361Z,2.13
2023-09-21T10:28:20.427Z,2.22
2023-09-21T10:30:49.943Z,2.40
2023-09-21T10:33:18.517Z,1.95
2023-09-21T10:35:47.175Z,2.35
2023-09-21T10:38:14.863Z,2.25
2023-09-21T10:40:42.496Z,1.67
2023-09-21T10:43:24.856Z,1.90
2023-09-21T10:45:57.964Z,1.88
2023-09-21T10:48:25.798Z,2.08
2023-09-21T10:50:53.474Z,2.00
2023-09-21T10:53:21.296Z,1.70
2023-09-21T10:55:49.701Z,1.98
2023-09-21T10:58:18.700Z,2.00
2023-09-21T11:00:46.150Z,2.10
2023-09-21T11:03:17.326Z,1.95
2023-09-21T11:05:45.266Z,2.08
2023-09-21T11:08:13.112Z,2.00
2023-09-21T11:10:43.716Z,1.90
2023-09-21T11:13:11.874Z,2.38
2023-09-21T11:15:40.563Z,2.00
2023-09-21T11:18:10.164Z,1.98
2023-09-21T11:20:40.714Z,2.33
2023-09-21T11:23:08.879Z,2.03
2023-09-21T11:25:36.900Z,1.90
2023-09-21T11:28:05.026Z,2.15
2023-09-21T11:30:35.727Z,2.42
2023-09-21T11:33:03.885Z,2.10
2023-09-21T11:35:32.063Z,2.10
2023-09-21T11:38:01.337Z,1.80
2023-09-21T11:40:29.386Z,1.88
2023-09-21T11:43:01.289Z,1.90
2023-09-21T11:45:29.942Z,2.42
2023-09-21T11:47:59.725Z,2.30
2023-09-21T11:50:29.093Z,2.28
2023-09-21T11:52:58.105Z,2.10
2023-09-21T11:55:28.037Z,1.70
2023-09-21T11:58:07.898Z,1.77
2023-09-21T12:00:49.850Z,2.22
2023-09-21T12:03:20.097Z,2.17
2023-09-21T12:05:48.866Z,2.20
2023-09-21T12:08:18.020Z,1.80
2023-09-21T12:10:48.378Z,2.08
2023-09-21T12:13:16.573Z,1.63
2023-09-21T12:15:44.574Z,2.08
2023-09-21T12:18:15.384Z,2.40
2023-09-21T12:20:48.507Z,2.17
2023-09-21T12:23:16.309Z,1.75
2023-09-21T12:25:44.140Z,2.38
2023-09-21T12:28:13.613Z,2.20
2023-09-21T12:30:44.003Z,2.10
2023-09-21T12:33:22.347Z,2.35
2023-09-21T12:36:00.098Z,2.22
2023-09-21T12:38:28.118Z,2.30
2023-09-21T12:40:56.140Z,2.53
2023-09-21T12:43:25.332Z,2.10
2023-09-21T12:45:56.030Z,2.17
2023-09-21T12:48:24.069Z,2.97
2023-09-21T12:50:52.392Z,2.63
2023-09-21T12:53:20.438Z,2.50
2023-09-21T12:55:48.256Z,2.60
2023-09-21T12:58:16.249Z,2.65
2023-09-21T13:00:46.912Z,2.40
2023-09-21T13:03:15.805Z,2.30
2023-09-21T13:05:46.348Z,2.20
2023-09-21T13:08:14.745Z,2.00
2023-09-21T13:10:43.348Z,2.30
2023-09-21T13:13:12.826Z,2.33
2023-09-21T13:15:41.119Z,2.47
2023-09-21T13:18:12.174Z,2.40
2023-09-21T13:20:40.521Z,2.05
2023-09-21T13:23:08.180Z,2.28
2023-09-21T13:25:35.699Z,2.40
2023-09-21T13:28:03.193Z,2.65
2023-09-21T13:30:31.257Z,3.03
2023-09-21T13:32:58.918Z,2.40
2023-09-21T13:35:27.801Z,2.80
2023-09-21T13:37:55.177Z,2.60
2023-09-21T13:40:23.239Z,2.78
2023-09-21T13:42:50.973Z,3.28
2023-09-21T13:45:18.812Z,2.47
2023-09-21T13:47:46.287Z,2.47
2023-09-21T13:50:13.701Z,2.75
2023-09-21T13:52:43.533Z,2.55
2023-09-21T13:55:18.594Z,2.40
2023-09-21T13:57:48.031Z,2.45
2023-09-21T14:00:16.032Z,2.40
2023-09-21T14:02:45.520Z,2.45
2023-09-21T14:05:13.903Z,2.45
2023-09-21T14:07:43.042Z,2.42
2023-09-21T14:10:10.825Z,2.78
2023-09-21T14:12:38.454Z,3.42
2023-09-21T14:15:07.273Z,2.55
2023-09-21T14:17:36.670Z,2.90
2023-09-21T14:20:05.753Z,2.72
2023-09-21T14:22:33.177Z,3.60
2023-09-21T14:25:02.177Z,2.72
2023-09-21T14:27:29.691Z,3.08
2023-09-21T14:29:57.099Z,3.00
2023-09-21T14:32:24.676Z,3.20
2023-09-21T14:34:52.307Z,3.78
2023-09-21T14:37:19.688Z,4.22
2023-09-21T14:39:47.268Z,5.50
2023-09-21T14:42:17.038Z,4.15
2023-09-21T14:44:45.303Z,3.80
2023-09-21T14:47:12.826Z,4.32
2023-09-21T14:49:40.194Z,4.50
2023-09-21T14:52:07.614Z,4.70
2023-09-21T14:54:37.156Z,4.78
2023-09-21T14:57:05.897Z,4.85
2023-09-21T14:59:34.667Z,5.55
2023-09-21T15:02:02.034Z,4.88
2023-09-21T15:04:29.539Z,3.42
2023-09-21T15:06:56.991Z,4.53
2023-09-21T15:09:24.500Z,3.55
2023-09-21T15:11:51.966Z,4.10
2023-09-21T15:14:19.471Z,3.10
2023-09-21T15:16:48.215Z,4.20
2023-09-21T15:19:15.645Z,3.47
2023-09-21T15:21:43.294Z,3.83
2023-09-21T15:24:10.735Z,3.55
2023-09-21T15:26:38.190Z,3.85
2023-09-21T15:29:05.966Z,4.38
2023-09-21T15:31:33.896Z,4.55
2023-09-21T15:34:02.789Z,4.13
2023-09-21T15:36:30.329Z,4.63
2023-09-21T15:38:57.948Z,4.35
2023-09-21T15:41:25.337Z,4.07
2023-09-21T15:43:52.777Z,4.68
2023-09-21T15:46:20.308Z,4.28
2023-09-21T15:48:47.814Z,4.70
2023-09-21T15:51:17.674Z,4.00
2023-09-21T15:53:45.104Z,3.88
2023-09-21T15:56:12.745Z,4.55
2023-09-21T15:58:40.256Z,4.90
2023-09-21T16:01:09.032Z,5.10
2023-09-21T16:03:36.798Z,5.18
2023-09-21T16:06:05.552Z,4.72
2023-09-21T16:08:36.349Z,5.53
2023-09-21T16:11:03.903Z,5.47
2023-09-21T16:13:33.682Z,5.78
2023-09-21T16:16:01.803Z,5.75
2023-09-21T16:18:29.673Z,6.30
2023-09-21T16:20:57.573Z,4.78
2023-09-21T16:23:25.572Z,4.80
2023-09-21T16:25:54.330Z,5.60
2023-09-21T16:28:21.742Z,5.03
2023-09-21T16:30:49.244Z,5.05
2023-09-21T16:33:16.918Z,5.53
2023-09-21T16:35:44.530Z,4.82
2023-09-21T16:38:11.947Z,5.15
2023-09-21T16:40:39.508Z,4.13
2023-09-21T16:43:08.283Z,4.53
2023-09-21T16:45:36.897Z,4.25
2023-09-21T16:48:06.113Z,4.72
2023-09-21T16:50:34.924Z,3.78
2023-09-21T16:53:03.389Z,3.35
2023-09-21T16:55:30.868Z,2.95
2023-09-21T16:57:58.254Z,3.30
2023-09-21T17:00:27.022Z,3.00
2023-09-21T17:02:54.605Z,2.80
2023-09-21T17:05:24.008Z,2.78
2023-09-21T17:07:51.649Z,2.95
2023-09-21T17:10:19.538Z,3.00
2023-09-21T17:12:47.528Z,2.75
2023-09-21T17:15:15.245Z,1.85
2023-09-21T17:17:44.114Z,1.85
2023-09-21T17:20:12.372Z,2.17
2023-09-21T17:22:41.104Z,2.22
2023-09-21T17:25:08.921Z,2.40
2023-09-21T17:27:36.430Z,2.03
2023-09-21T17:30:05.662Z,2.50
2023-09-21T17:32:33.260Z,2.15
2023-09-21T17:35:03.295Z,2.20
2023-09-21T17:37:31.199Z,1.60
2023-09-21T17:39:58.590Z,1.60
2023-09-21T17:42:26.093Z,1.50
2023-09-21T17:44:54.870Z,1.08
2023-09-21T17:47:22.365Z,1.30
2023-09-21T17:49:49.948Z,1.50
2023-09-21T17:52:19.022Z,1.48
2023-09-21T17:54:46.489Z,1.55
2023-09-21T17:57:14.674Z,1.45
2023-09-21T17:59:42.394Z,1.40
2023-09-21T18:02:09.887Z,1.20
2023-09-21T18:04:38.782Z,1.55
2023-09-21T18:07:06.507Z,1.50
2023-09-21T18:09:35.360Z,1.50
2023-09-21T18:12:04.352Z,1.77
2023-09-21T18:14:31.877Z,1.73
2023-09-21T18:16:59.280Z,1.92
2023-09-21T18:19:30.238Z,1.45
2023-09-21T18:21:57.947Z,1.50
2023-09-21T18:24:25.436Z,1.30
2023-09-21T18:26:55.187Z,1.45
2023-09-21T18:29:22.670Z,1.30
2023-09-21T18:31:50.158Z,1.63
2023-09-21T18:34:18.144Z,1.42
2023-09-21T18:36:45.570Z,1.70
2023-09-21T18:39:13.924Z,1.90
2023-09-21T18:41:41.737Z,2.15
2023-09-21T18:44:11.086Z,1.63
2023-09-21T18:46:41.802Z,1.77
2023-09-21T18:49:09.460Z,1.95
2023-09-21T18:51:37.125Z,1.92
2023-09-21T18:54:04.640Z,1.80
2023-09-21T18:56:33.227Z,1.40
2023-09-21T18:59:02.474Z,1.80
2023-09-21T19:01:31.263Z,1.65
2023-09-21T19:03:58.702Z,1.65
2023-09-21T19:06:26.213Z,1.70
2023-09-21T19:08:54.186Z,1.90
2023-09-21T19:11:21.789Z,1.80
2023-09-21T19:13:50.721Z,1.83
2023-09-21T19:16:18.518Z,1.70
2023-09-21T19:18:47.714Z,1.50
2023-09-21T19:21:15.374Z,1.60
2023-09-21T19:23:43.487Z,1.40
2023-09-21T19:26:10.941Z,1.38
2023-09-21T19:28:38.301Z,1.33
2023-09-21T19:31:05.967Z,1.40
2023-09-21T19:33:33.490Z,1.52
2023-09-21T19:36:02.237Z,1.50
2023-09-21T19:38:29.637Z,1.65
2023-09-21T19:43:40.184Z,1.70
2023-09-21T19:46:07.727Z,1.70
2023-09-21T19:48:35.189Z,1.77
2023-09-21T19:51:05.424Z,1.60
2023-09-21T19:53:32.867Z,1.70
2023-09-21T19:56:00.253Z,1.48
2023-09-21T19:58:27.652Z,1.70
2023-09-21T20:00:55.128Z,2.35
2023-09-21T20:03:22.671Z,1.50
2023-09-21T20:05:50.177Z,1.45
2023-09-21T20:08:18.949Z,1.88
2023-09-21T20:10:46.405Z,1.52
2023-09-21T20:13:13.864Z,1.52
2023-09-21T20:15:41.338Z,1.80
2023-09-21T20:18:08.927Z,2.47
2023-09-21T20:20:37.703Z,1.38
2023-09-21T20:23:05.236Z,1.98
2023-09-21T20:25:34.129Z,2.00
2023-09-21T20:28:02.695Z,2.20
2023-09-21T20:30:30.529Z,2.05
2023-09-21T20:32:58.048Z,2.05
2023-09-21T20:35:25.848Z,2.10
2023-09-21T20:37:53.311Z,2.13
2023-09-21T20:40:21.106Z,1.85
2023-09-21T20:42:49.901Z,2.00
2023-09-21T20:45:17.399Z,1.20
2023-09-21T20:47:46.371Z,1.58
2023-09-21T20:50:13.827Z,1.83
2023-09-21T20:52:41.301Z,1.60
2023-09-21T20:55:08.897Z,1.50
2023-09-21T20:57:36.698Z,1.90
2023-09-21T21:00:08.253Z,1.45
2023-09-21T21:02:35.684Z,1.45
2023-09-21T21:05:03.226Z,1.40
2023-09-21T21:07:32.906Z,1.38
2023-09-21T21:10:00.581Z,1.40
2023-09-21T21:12:27.954Z,1.55
2023-09-21T21:14:56.036Z,1.70
2023-09-21T21:17:25.490Z,1.70
2023-09-21T21:19:53.002Z,1.67
2023-09-21T21:22:20.374Z,1.80
2023-09-21T21:24:47.792Z,1.45
2023-09-21T21:27:15.184Z,1.75
2023-09-21T21:29:42.549Z,1.60
2023-09-21T21:32:09.927Z,1.55
2023-09-21T21:34:38.630Z,1.50
2023-09-21T21:37:07.379Z,1.60
2023-09-21T21:39:34.821Z,1.58
2023-09-21T21:42:02.751Z,1.52
2023-09-21T21:44:30.635Z,1.25
2023-09-21T21:46:58.113Z,1.50
2023-09-21T21:49:25.480Z,1.15
2023-09-21T21:51:56.619Z,1.48
2023-09-21T21:54:24.082Z,1.08
2023-09-21T21:56:51.650Z,1.27
2023-09-21T21:59:19.030Z,1.02
2023-09-21T22:01:46.912Z,1.35
2023-09-21T22:04:14.432Z,2.08
2023-09-21T22:06:41.851Z,1.50
2023-09-21T22:09:10.627Z,1.30
2023-09-21T22:11:38.218Z,1.15
2023-09-21T22:14:05.916Z,1.30
2023-09-21T22:16:33.528Z,1.42
2023-09-21T22:19:02.098Z,1.35
2023-09-21T22:21:29.760Z,1.27
2023-09-21T22:23:58.084Z,1.40
2023-09-21T22:26:26.888Z,1.10
2023-09-21T22:28:54.234Z,1.30
2023-09-21T22:31:22.509Z,1.20
2023-09-21T22:33:50.770Z,1.10
2023-09-21T22:36:22.938Z,1.02
2023-09-21T22:38:50.362Z,0.98
2023-09-21T22:41:18.306Z,1.00
2023-09-21T22:43:48.213Z,1.00
2023-09-21T22:46:16.364Z,0.70
2023-09-21T22:48:44.754Z,1.00
2023-09-21T22:51:12.749Z,1.20
2023-09-21T22:53:40.108Z,1.05
2023-09-21T22:56:07.447Z,1.10
2023-09-21T22:58:34.786Z,1.00
2023-09-21T23:01:04.601Z,1.00
2023-09-21T23:03:32.223Z,1.05
2023-09-21T23:06:08.090Z,1.10
2023-09-21T23:08:36.431Z,1.00
2023-09-21T23:11:05.242Z,1.20
2023-09-21T23:13:32.661Z,0.98
2023-09-21T23:16:00.054Z,1.27
2023-09-21T23:18:28.808Z,1.48
2023-09-21T23:21:04.877Z,0.90
2023-09-21T23:23:32.257Z,1.30
2023-09-21T23:26:01.993Z,1.20
2023-09-21T23:28:29.579Z,1.50
2023-09-21T23:30:57.931Z,1.00
2023-09-21T23:33:25.996Z,1.30
2023-09-21T23:35:54.716Z,1.40
2023-09-21T23:38:22.129Z,1.27
2023-09-21T23:40:50.014Z,1.75
2023-09-21T23:43:18.758Z,1.60
2023-09-21T23:45:48.164Z,1.50
2023-09-21T23:48:16.292Z,1.42
2023-09-21T23:50:44.831Z,1.17
2023-09-21T23:53:16.396Z,1.75
2023-09-21T23:55:44.265Z,1.45
2023-09-21T23:58:13.647Z,1.70
